sensor_id;sensor_type;location;lat;lon;timestamp;pressure;altitude;pressure_sealevel;temperature;humidity
84590;BME280;76270;48.816;8.740;2024-03-02T00:01:43;94358.00;;;4.83;79.21
84590;BME280;76270;48.816;8.740;2024-03-02T00:03:45;94356.22;;;4.83;79.24
84590;BME280;76270;48.816;8.740;2024-03-02T00:05:50;94363.63;;;4.78;79.32
84590;BME280;76270;48.816;8.740;2024-03-02T00:07:57;94370.03;;;4.85;79.00
84590;BME280;76270;48.816;8.740;2024-03-02T00:10:00;94359.91;;;4.81;78.88
84590;BME280;76270;48.816;8.740;2024-03-02T00:12:02;94357.78;;;4.75;79.52
84590;BME280;76270;48.816;8.740;2024-03-02T00:14:04;94357.28;;;4.81;79.13
84590;BME280;76270;48.816;8.740;2024-03-02T00:16:06;94356.44;;;4.80;79.36
84590;BME280;76270;48.816;8.740;2024-03-02T00:18:10;94364.09;;;4.83;79.09
84590;BME280;76270;48.816;8.740;2024-03-02T00:20:17;94358.13;;;4.81;79.11
84590;BME280;76270;48.816;8.740;2024-03-02T00:22:20;94356.44;;;4.80;79.29
84590;BME280;76270;48.816;8.740;2024-03-02T00:24:32;94366.25;;;4.78;79.29
84590;BME280;76270;48.816;8.740;2024-03-02T00:26:34;94374.81;;;4.69;79.73
84590;BME280;76270;48.816;8.740;2024-03-02T00:28:36;94370.03;;;4.74;79.50
84590;BME280;76270;48.816;8.740;2024-03-02T00:32:46;94369.44;;;4.71;79.20
84590;BME280;76270;48.816;8.740;2024-03-02T00:34:48;94360.53;;;4.73;79.22
84590;BME280;76270;48.816;8.740;2024-03-02T00:36:50;94356.09;;;4.74;79.32
84590;BME280;76270;48.816;8.740;2024-03-02T00:38:54;94358.38;;;4.78;79.02
84590;BME280;76270;48.816;8.740;2024-03-02T00:40:58;94356.94;;;4.63;79.70
84590;BME280;76270;48.816;8.740;2024-03-02T00:43:01;94356.84;;;4.65;79.39
84590;BME280;76270;48.816;8.740;2024-03-02T00:45:07;94356.69;;;4.66;79.64
84590;BME280;76270;48.816;8.740;2024-03-02T00:47:09;94358.94;;;4.71;79.18
84590;BME280;76270;48.816;8.740;2024-03-02T00:51:12;94353.00;;;4.69;79.37
84590;BME280;76270;48.816;8.740;2024-03-02T00:53:14;94358.16;;;4.59;79.88
84590;BME280;76270;48.816;8.740;2024-03-02T00:55:16;94369.81;;;4.66;79.59
84590;BME280;76270;48.816;8.740;2024-03-02T00:57:17;94363.25;;;4.60;79.68
84590;BME280;76270;48.816;8.740;2024-03-02T00:59:19;94373.50;;;4.41;81.25
84590;BME280;76270;48.816;8.740;2024-03-02T01:01:21;94369.72;;;3.88;83.10
84590;BME280;76270;48.816;8.740;2024-03-02T01:03:24;94371.13;;;4.27;81.72
84590;BME280;76270;48.816;8.740;2024-03-02T01:05:25;94373.63;;;4.40;80.84
84590;BME280;76270;48.816;8.740;2024-03-02T01:07:27;94373.84;;;4.48;79.85
84590;BME280;76270;48.816;8.740;2024-03-02T01:09:29;94366.81;;;4.37;80.38
84590;BME280;76270;48.816;8.740;2024-03-02T01:11:31;94368.38;;;4.40;80.22
84590;BME280;76270;48.816;8.740;2024-03-02T01:13:33;94376.38;;;4.49;79.88
84590;BME280;76270;48.816;8.740;2024-03-02T01:15:35;94373.50;;;4.52;79.68
84590;BME280;76270;48.816;8.740;2024-03-02T01:17:37;94375.16;;;4.53;79.64
84590;BME280;76270;48.816;8.740;2024-03-02T01:19:41;94363.03;;;4.52;79.51
84590;BME280;76270;48.816;8.740;2024-03-02T01:21:43;94362.56;;;4.58;79.52
84590;BME280;76270;48.816;8.740;2024-03-02T01:23:45;94361.94;;;4.55;79.60
84590;BME280;76270;48.816;8.740;2024-03-02T01:25:47;94361.72;;;4.58;79.58
84590;BME280;76270;48.816;8.740;2024-03-02T01:27:49;94359.19;;;4.56;79.59
84590;BME280;76270;48.816;8.740;2024-03-02T01:29:51;94362.19;;;4.52;79.70
84590;BME280;76270;48.816;8.740;2024-03-02T01:31:52;94356.94;;;4.52;79.65
84590;BME280;76270;48.816;8.740;2024-03-02T01:33:55;94349.53;;;4.46;79.95
84590;BME280;76270;48.816;8.740;2024-03-02T01:35:57;94346.44;;;4.52;79.90
84590;BME280;76270;48.816;8.740;2024-03-02T01:37:59;94354.31;;;4.41;80.44
84590;BME280;76270;48.816;8.740;2024-03-02T01:40:01;94357.41;;;4.46;79.92
84590;BME280;76270;48.816;8.740;2024-03-02T01:42:02;94349.69;;;4.44;80.09
84590;BME280;76270;48.816;8.740;2024-03-02T01:44:04;94358.34;;;4.45;79.87
84590;BME280;76270;48.816;8.740;2024-03-02T01:46:06;94365.50;;;4.43;79.96
84590;BME280;76270;48.816;8.740;2024-03-02T01:48:08;94361.59;;;4.48;80.02
84590;BME280;76270;48.816;8.740;2024-03-02T01:50:13;94348.72;;;4.45;79.97
84590;BME280;76270;48.816;8.740;2024-03-02T01:52:15;94350.38;;;4.46;79.97
84590;BME280;76270;48.816;8.740;2024-03-02T01:54:17;94352.53;;;4.41;79.98
84590;BME280;76270;48.816;8.740;2024-03-02T01:56:19;94355.63;;;4.35;80.12
84590;BME280;76270;48.816;8.740;2024-03-02T01:58:20;94356.69;;;4.44;80.02
84590;BME280;76270;48.816;8.740;2024-03-02T02:00:22;94348.38;;;4.39;79.94
84590;BME280;76270;48.816;8.740;2024-03-02T02:02:26;94349.31;;;4.38;80.00
84590;BME280;76270;48.816;8.740;2024-03-02T02:04:28;94349.31;;;4.38;80.19
84590;BME280;76270;48.816;8.740;2024-03-02T02:06:30;94347.75;;;4.35;80.16
84590;BME280;76270;48.816;8.740;2024-03-02T02:08:32;94336.66;;;4.21;80.32
84590;BME280;76270;48.816;8.740;2024-03-02T02:10:34;94341.78;;;4.22;80.59
84590;BME280;76270;48.816;8.740;2024-03-02T02:12:36;94348.84;;;4.33;80.14
84590;BME280;76270;48.816;8.740;2024-03-02T02:14:38;94333.34;;;4.19;80.70
84590;BME280;76270;48.816;8.740;2024-03-02T02:16:41;94337.50;;;4.21;80.67
84590;BME280;76270;48.816;8.740;2024-03-02T02:18:43;94338.22;;;4.23;80.18
84590;BME280;76270;48.816;8.740;2024-03-02T02:20:45;94341.00;;;3.76;82.79
84590;BME280;76270;48.816;8.740;2024-03-02T02:24:57;94331.75;;;4.16;80.39
84590;BME280;76270;48.816;8.740;2024-03-02T02:26:59;94332.72;;;4.15;80.21
84590;BME280;76270;48.816;8.740;2024-03-02T02:29:01;94332.59;;;4.17;80.15
84590;BME280;76270;48.816;8.740;2024-03-02T02:31:02;94329.66;;;4.21;79.89
84590;BME280;76270;48.816;8.740;2024-03-02T02:33:04;94327.03;;;4.21;80.03
84590;BME280;76270;48.816;8.740;2024-03-02T02:35:06;94331.19;;;4.24;80.04
84590;BME280;76270;48.816;8.740;2024-03-02T02:37:08;94331.66;;;4.18;80.44
84590;BME280;76270;48.816;8.740;2024-03-02T02:39:15;94329.75;;;4.20;80.11
84590;BME280;76270;48.816;8.740;2024-03-02T02:41:18;94324.41;;;4.21;80.08
84590;BME280;76270;48.816;8.740;2024-03-02T02:43:20;94325.47;;;4.19;79.95
84590;BME280;76270;48.816;8.740;2024-03-02T02:45:22;94326.19;;;4.21;80.22
84590;BME280;76270;48.816;8.740;2024-03-02T02:47:23;94323.78;;;4.18;80.03
84590;BME280;76270;48.816;8.740;2024-03-02T02:49:25;94321.28;;;4.16;80.08
84590;BME280;76270;48.816;8.740;2024-03-02T02:51:27;94311.75;;;4.04;80.25
84590;BME280;76270;48.816;8.740;2024-03-02T02:53:29;94310.91;;;4.03;80.15
84590;BME280;76270;48.816;8.740;2024-03-02T02:55:30;94312.47;;;4.06;80.15
84590;BME280;76270;48.816;8.740;2024-03-02T02:57:33;94314.97;;;4.08;80.07
84590;BME280;76270;48.816;8.740;2024-03-02T02:59:40;94315.47;;;4.13;80.05
84590;BME280;76270;48.816;8.740;2024-03-02T03:01:41;94316.16;;;4.15;80.05
84590;BME280;76270;48.816;8.740;2024-03-02T03:03:44;94313.56;;;4.15;79.94
84590;BME280;76270;48.816;8.740;2024-03-02T03:05:46;94316.53;;;4.10;80.18
84590;BME280;76270;48.816;8.740;2024-03-02T03:07:48;94308.44;;;4.13;80.06
84590;BME280;76270;48.816;8.740;2024-03-02T03:09:52;94313.78;;;4.12;80.08
84590;BME280;76270;48.816;8.740;2024-03-02T03:11:54;94314.50;;;4.14;80.16
84590;BME280;76270;48.816;8.740;2024-03-02T03:13:56;94307.34;;;4.05;80.08
84590;BME280;76270;48.816;8.740;2024-03-02T03:15:58;94307.09;;;4.08;80.19
84590;BME280;76270;48.816;8.740;2024-03-02T03:18:00;94311.75;;;4.04;80.12
84590;BME280;76270;48.816;8.740;2024-03-02T03:20:02;94317.56;;;4.08;80.19
84590;BME280;76270;48.816;8.740;2024-03-02T03:22:05;94317.09;;;4.02;80.15
84590;BME280;76270;48.816;8.740;2024-03-02T03:24:07;94318.78;;;4.03;80.18
84590;BME280;76270;48.816;8.740;2024-03-02T03:26:09;94310.69;;;4.07;80.19
84590;BME280;76270;48.816;8.740;2024-03-02T03:28:11;94315.56;;;4.00;80.12
84590;BME280;76270;48.816;8.740;2024-03-02T03:30:13;94307.69;;;4.00;80.18
84590;BME280;76270;48.816;8.740;2024-03-02T03:32:15;94311.03;;;4.02;80.28
84590;BME280;76270;48.816;8.740;2024-03-02T03:34:18;94309.38;;;4.01;80.27
84590;BME280;76270;48.816;8.740;2024-03-02T03:36:19;94310.16;;;3.90;80.68
84590;BME280;76270;48.816;8.740;2024-03-02T03:38:21;94309.84;;;3.95;80.52
84590;BME280;76270;48.816;8.740;2024-03-02T03:40:23;94314.25;;;3.94;80.40
84590;BME280;76270;48.816;8.740;2024-03-02T03:42:25;94313.53;;;3.92;80.31
84590;BME280;76270;48.816;8.740;2024-03-02T03:44:26;94305.19;;;3.87;80.39
84590;BME280;76270;48.816;8.740;2024-03-02T03:46:28;94311.13;;;3.89;80.43
84590;BME280;76270;48.816;8.740;2024-03-02T03:48:30;94313.84;;;3.88;80.44
84590;BME280;76270;48.816;8.740;2024-03-02T03:50:32;94311.84;;;3.91;80.48
84590;BME280;76270;48.816;8.740;2024-03-02T03:52:34;94314.47;;;3.91;80.33
84590;BME280;76270;48.816;8.740;2024-03-02T03:54:35;94317.56;;;3.96;80.35
84590;BME280;76270;48.816;8.740;2024-03-02T03:56:39;94309.59;;;3.98;80.13
84590;BME280;76270;48.816;8.740;2024-03-02T03:58:41;94311.38;;;3.97;80.10
84590;BME280;76270;48.816;8.740;2024-03-02T04:00:43;94308.63;;;3.88;80.38
84590;BME280;76270;48.816;8.740;2024-03-02T04:02:45;94312.91;;;3.78;81.70
84590;BME280;76270;48.816;8.740;2024-03-02T04:04:47;94311.84;;;3.80;81.12
84590;BME280;76270;48.816;8.740;2024-03-02T04:06:48;94313.16;;;3.86;80.95
84590;BME280;76270;48.816;8.740;2024-03-02T04:08:51;94303.88;;;3.93;80.82
84590;BME280;76270;48.816;8.740;2024-03-02T04:10:53;94316.16;;;3.92;80.60
84590;BME280;76270;48.816;8.740;2024-03-02T04:12:55;94314.22;;;3.83;81.07
84590;BME280;76270;48.816;8.740;2024-03-02T04:14:56;94305.44;;;3.84;81.28
84590;BME280;76270;48.816;8.740;2024-03-02T04:16:58;94307.53;;;3.79;81.21
84590;BME280;76270;48.816;8.740;2024-03-02T04:19:00;94306.47;;;3.82;81.47
84590;BME280;76270;48.816;8.740;2024-03-02T04:21:02;94310.16;;;3.79;81.38
84590;BME280;76270;48.816;8.740;2024-03-02T04:23:03;94309.91;;;3.82;81.23
84590;BME280;76270;48.816;8.740;2024-03-02T04:25:05;94312.31;;;3.85;81.36
84590;BME280;76270;48.816;8.740;2024-03-02T04:27:09;94316.22;;;3.80;81.49
84590;BME280;76270;48.816;8.740;2024-03-02T04:29:10;94314.56;;;3.79;81.62
84590;BME280;76270;48.816;8.740;2024-03-02T04:31:12;94309.91;;;3.82;81.33
84590;BME280;76270;48.816;8.740;2024-03-02T04:33:14;94311.94;;;3.79;81.53
84590;BME280;76270;48.816;8.740;2024-03-02T04:35:16;94312.78;;;3.79;81.65
84590;BME280;76270;48.816;8.740;2024-03-02T04:37:18;94309.81;;;3.84;81.10
84590;BME280;76270;48.816;8.740;2024-03-02T04:39:19;94312.75;;;3.68;81.41
84590;BME280;76270;48.816;8.740;2024-03-02T04:41:21;94312.53;;;3.82;81.28
84590;BME280;76270;48.816;8.740;2024-03-02T04:43:23;94312.91;;;3.78;81.60
84590;BME280;76270;48.816;8.740;2024-03-02T04:45:24;94315.38;;;3.79;81.11
84590;BME280;76270;48.816;8.740;2024-03-02T04:47:26;94308.75;;;3.86;80.99
84590;BME280;76270;48.816;8.740;2024-03-02T04:49:28;94317.69;;;3.84;80.94
84590;BME280;76270;48.816;8.740;2024-03-02T04:51:30;94320.16;;;3.74;81.18
84590;BME280;76270;48.816;8.740;2024-03-02T04:53:32;94314.31;;;3.71;81.35
84590;BME280;76270;48.816;8.740;2024-03-02T04:55:33;94318.47;;;3.73;81.35
84590;BME280;76270;48.816;8.740;2024-03-02T04:57:35;94314.44;;;3.69;81.41
84590;BME280;76270;48.816;8.740;2024-03-02T04:59:37;94320.84;;;3.76;81.04
84590;BME280;76270;48.816;8.740;2024-03-02T05:01:39;94323.13;;;3.70;81.43
84590;BME280;76270;48.816;8.740;2024-03-02T05:03:40;94325.28;;;3.76;81.25
84590;BME280;76270;48.816;8.740;2024-03-02T05:05:42;94329.78;;;3.74;81.26
84590;BME280;76270;48.816;8.740;2024-03-02T05:07:44;94321.56;;;3.67;81.62
84590;BME280;76270;48.816;8.740;2024-03-02T05:09:46;94323.59;;;3.75;81.33
84590;BME280;76270;48.816;8.740;2024-03-02T05:11:49;94328.47;;;3.68;81.54
84590;BME280;76270;48.816;8.740;2024-03-02T05:14:10;94334.09;;;3.75;81.12
84590;BME280;76270;48.816;8.740;2024-03-02T05:16:12;94334.19;;;3.73;81.10
84590;BME280;76270;48.816;8.740;2024-03-02T05:18:13;94334.31;;;3.72;80.80
84590;BME280;76270;48.816;8.740;2024-03-02T05:20:16;94331.06;;;3.68;81.24
84590;BME280;76270;48.816;8.740;2024-03-02T05:22:18;94338.00;;;3.69;81.12
84590;BME280;76270;48.816;8.740;2024-03-02T05:24:20;94337.88;;;3.71;80.98
84590;BME280;76270;48.816;8.740;2024-03-02T05:26:22;94342.53;;;3.67;81.06
84590;BME280;76270;48.816;8.740;2024-03-02T05:28:23;94338.41;;;3.52;82.03
84590;BME280;76270;48.816;8.740;2024-03-02T05:30:25;94339.03;;;3.56;81.55
84590;BME280;76270;48.816;8.740;2024-03-02T05:32:27;94333.31;;;3.62;81.16
84590;BME280;76270;48.816;8.740;2024-03-02T05:34:29;94343.31;;;3.57;81.43
84590;BME280;76270;48.816;8.740;2024-03-02T05:36:32;94339.50;;;3.61;81.33
84590;BME280;76270;48.816;8.740;2024-03-02T05:38:37;94335.84;;;3.63;81.29
84590;BME280;76270;48.816;8.740;2024-03-02T05:40:38;94335.59;;;3.66;81.07
84590;BME280;76270;48.816;8.740;2024-03-02T05:42:40;94342.53;;;3.67;80.77
84590;BME280;76270;48.816;8.740;2024-03-02T05:44:43;94334.38;;;3.59;81.22
84590;BME280;76270;48.816;8.740;2024-03-02T05:46:45;94337.28;;;3.67;80.95
84590;BME280;76270;48.816;8.740;2024-03-02T05:48:47;94337.75;;;3.61;81.09
84590;BME280;76270;48.816;8.740;2024-03-02T05:50:49;94333.31;;;3.62;80.96
84590;BME280;76270;48.816;8.740;2024-03-02T05:52:51;94336.28;;;3.57;81.14
84590;BME280;76270;48.816;8.740;2024-03-02T05:54:52;94333.19;;;3.52;81.01
84590;BME280;76270;48.816;8.740;2024-03-02T05:56:54;94336.19;;;3.59;81.04
84590;BME280;76270;48.816;8.740;2024-03-02T05:58:56;94341.53;;;3.57;81.21
84590;BME280;76270;48.816;8.740;2024-03-02T06:01:17;94339.06;;;3.67;80.75
84590;BME280;76270;48.816;8.740;2024-03-02T06:03:20;94352.84;;;3.58;80.91
84590;BME280;76270;48.816;8.740;2024-03-02T06:05:22;94344.03;;;3.59;81.08
84590;BME280;76270;48.816;8.740;2024-03-02T06:07:23;94344.50;;;3.53;80.91
84590;BME280;76270;48.816;8.740;2024-03-02T06:09:25;94341.06;;;3.63;80.42
84590;BME280;76270;48.816;8.740;2024-03-02T06:11:28;94342.47;;;3.56;80.71
84590;BME280;76270;48.816;8.740;2024-03-02T06:13:30;94340.19;;;3.52;80.75
84590;BME280;76270;48.816;8.740;2024-03-02T06:15:31;94337.56;;;3.52;80.77
84590;BME280;76270;48.816;8.740;2024-03-02T06:17:37;94344.25;;;3.56;80.65
84590;BME280;76270;48.816;8.740;2024-03-02T06:19:39;94341.44;;;3.59;80.83
84590;BME280;76270;48.816;8.740;2024-03-02T06:21:40;94344.72;;;3.50;80.52
84590;BME280;76270;48.816;8.740;2024-03-02T06:23:42;94344.09;;;3.46;80.67
84590;BME280;76270;48.816;8.740;2024-03-02T06:25:44;94337.69;;;3.50;80.80
84590;BME280;76270;48.816;8.740;2024-03-02T06:27:46;94345.91;;;3.57;80.61
84590;BME280;76270;48.816;8.740;2024-03-02T06:29:47;94346.97;;;3.54;80.54
84590;BME280;76270;48.816;8.740;2024-03-02T06:31:50;94355.72;;;3.42;80.77
84590;BME280;76270;48.816;8.740;2024-03-02T06:33:55;94347.66;;;3.45;80.45
84590;BME280;76270;48.816;8.740;2024-03-02T06:35:57;94344.41;;;3.41;81.05
84590;BME280;76270;48.816;8.740;2024-03-02T06:37:58;94349.13;;;3.49;80.56
84590;BME280;76270;48.816;8.740;2024-03-02T06:40:00;94357.69;;;3.51;80.91
84590;BME280;76270;48.816;8.740;2024-03-02T06:42:02;94338.63;;;3.49;80.58
84590;BME280;76270;48.816;8.740;2024-03-02T06:44:04;94339.84;;;3.56;80.38
84590;BME280;76270;48.816;8.740;2024-03-02T06:46:08;94353.41;;;3.50;80.47
84590;BME280;76270;48.816;8.740;2024-03-02T06:48:11;94353.41;;;3.50;80.73
84590;BME280;76270;48.816;8.740;2024-03-02T06:50:12;94347.22;;;3.51;80.63
84590;BME280;76270;48.816;8.740;2024-03-02T06:52:14;94355.28;;;3.48;80.57
84590;BME280;76270;48.816;8.740;2024-03-02T06:54:16;94357.41;;;3.43;80.59
84590;BME280;76270;48.816;8.740;2024-03-02T06:56:18;94351.81;;;3.47;80.68
84590;BME280;76270;48.816;8.740;2024-03-02T06:58:19;94353.91;;;3.55;80.40
84590;BME280;76270;48.816;8.740;2024-03-02T07:00:21;94352.22;;;3.54;80.51
84590;BME280;76270;48.816;8.740;2024-03-02T07:02:23;94349.81;;;3.51;80.23
84590;BME280;76270;48.816;8.740;2024-03-02T07:04:25;94358.34;;;3.42;80.63
84590;BME280;76270;48.816;8.740;2024-03-02T07:06:27;94364.59;;;3.52;80.23
84590;BME280;76270;48.816;8.740;2024-03-02T07:08:28;94362.81;;;3.53;80.38
84590;BME280;76270;48.816;8.740;2024-03-02T07:10:30;94362.19;;;3.49;80.57
84590;BME280;76270;48.816;8.740;2024-03-02T07:12:32;94372.75;;;3.47;80.47
84590;BME280;76270;48.816;8.740;2024-03-02T07:14:35;94367.53;;;3.47;80.49
84590;BME280;76270;48.816;8.740;2024-03-02T07:16:55;94372.28;;;3.42;80.69
84590;BME280;76270;48.816;8.740;2024-03-02T07:18:57;94368.28;;;3.50;80.33
84590;BME280;76270;48.816;8.740;2024-03-02T07:20:59;94368.72;;;3.43;80.58
84590;BME280;76270;48.816;8.740;2024-03-02T07:23:03;94365.97;;;3.45;80.53
84590;BME280;76270;48.816;8.740;2024-03-02T07:25:05;94361.13;;;3.52;80.42
84590;BME280;76270;48.816;8.740;2024-03-02T07:27:09;94365.03;;;3.46;80.50
84590;BME280;76270;48.816;8.740;2024-03-02T07:29:12;94371.72;;;3.50;80.48
84590;BME280;76270;48.816;8.740;2024-03-02T07:31:13;94373.38;;;3.51;80.29
84590;BME280;76270;48.816;8.740;2024-03-02T07:33:15;94373.06;;;3.56;80.16
84590;BME280;76270;48.816;8.740;2024-03-02T07:35:18;94372.66;;;3.49;80.52
84590;BME280;76270;48.816;8.740;2024-03-02T07:37:20;94371.47;;;3.53;80.49
84590;BME280;76270;48.816;8.740;2024-03-02T07:39:22;94364.59;;;3.52;80.17
84590;BME280;76270;48.816;8.740;2024-03-02T07:41:24;94372.66;;;3.49;80.38
84590;BME280;76270;48.816;8.740;2024-03-02T07:43:26;94368.06;;;3.53;80.46
84590;BME280;76270;48.816;8.740;2024-03-02T07:45:28;94374.50;;;3.60;80.19
84590;BME280;76270;48.816;8.740;2024-03-02T07:47:29;94371.66;;;3.63;80.21
84590;BME280;76270;48.816;8.740;2024-03-02T07:49:31;94371.03;;;3.59;80.47
84590;BME280;76270;48.816;8.740;2024-03-02T07:51:33;94372.03;;;3.69;80.30
84590;BME280;76270;48.816;8.740;2024-03-02T07:53:35;94371.31;;;3.67;79.94
84590;BME280;76270;48.816;8.740;2024-03-02T07:55:37;94378.00;;;3.71;79.84
84590;BME280;76270;48.816;8.740;2024-03-02T07:57:40;94373.94;;;3.67;79.99
84590;BME280;76270;48.816;8.740;2024-03-02T07:59:42;94370.97;;;3.72;79.81
84590;BME280;76270;48.816;8.740;2024-03-02T08:01:44;94373.84;;;3.80;79.76
84590;BME280;76270;48.816;8.740;2024-03-02T08:03:46;94368.78;;;3.89;79.42
84590;BME280;76270;48.816;8.740;2024-03-02T08:05:49;94368.41;;;3.94;79.31
84590;BME280;76270;48.816;8.740;2024-03-02T08:07:51;94374.34;;;3.85;79.68
84590;BME280;76270;48.816;8.740;2024-03-02T08:09:54;94377.81;;;3.96;79.37
84590;BME280;76270;48.816;8.740;2024-03-02T08:11:56;94379.13;;;4.02;79.23
84590;BME280;76270;48.816;8.740;2024-03-02T08:13:59;94375.72;;;4.01;79.25
84590;BME280;76270;48.816;8.740;2024-03-02T08:16:01;94369.19;;;4.07;79.14
84590;BME280;76270;48.816;8.740;2024-03-02T08:18:05;94375.84;;;4.11;79.38
84590;BME280;76270;48.816;8.740;2024-03-02T08:20:07;94373.66;;;4.05;79.00
84590;BME280;76270;48.816;8.740;2024-03-02T08:22:09;94370.59;;;4.11;78.91
84590;BME280;76270;48.816;8.740;2024-03-02T08:24:12;94374.91;;;4.23;78.88
84590;BME280;76270;48.816;8.740;2024-03-02T08:26:13;94373.59;;;4.29;78.46
84590;BME280;76270;48.816;8.740;2024-03-02T08:28:15;94369.31;;;4.28;78.49
84590;BME280;76270;48.816;8.740;2024-03-02T08:30:17;94370.38;;;4.25;78.50
84590;BME280;76270;48.816;8.740;2024-03-02T08:32:19;94366.72;;;4.39;78.44
84590;BME280;76270;48.816;8.740;2024-03-02T08:34:21;94363.13;;;4.40;78.45
84590;BME280;76270;48.816;8.740;2024-03-02T08:36:23;94364.81;;;4.41;78.15
84590;BME280;76270;48.816;8.740;2024-03-02T08:38:25;94368.97;;;4.43;78.26
84590;BME280;76270;48.816;8.740;2024-03-02T08:40:28;94358.03;;;4.49;78.17
84590;BME280;76270;48.816;8.740;2024-03-02T08:42:30;94363.97;;;4.63;77.95
84590;BME280;76270;48.816;8.740;2024-03-02T08:44:31;94360.41;;;4.64;77.75
84590;BME280;76270;48.816;8.740;2024-03-02T08:46:34;94368.03;;;4.78;77.21
84590;BME280;76270;48.816;8.740;2024-03-02T08:48:36;94369.94;;;4.76;77.49
84590;BME280;76270;48.816;8.740;2024-03-02T08:50:38;94367.44;;;4.96;77.00
84590;BME280;76270;48.816;8.740;2024-03-02T08:52:40;94372.06;;;4.93;76.92
84590;BME280;76270;48.816;8.740;2024-03-02T08:54:42;94369.53;;;5.02;77.03
84590;BME280;76270;48.816;8.740;2024-03-02T08:56:43;94368.59;;;5.03;76.91
84590;BME280;76270;48.816;8.740;2024-03-02T08:58:45;94370.16;;;4.95;77.44
84590;BME280;76270;48.816;8.740;2024-03-02T09:00:47;94371.34;;;5.02;77.42
84590;BME280;76270;48.816;8.740;2024-03-02T09:02:49;94371.09;;;5.05;77.81
84590;BME280;76270;48.816;8.740;2024-03-02T09:04:51;94374.44;;;5.07;77.52
84590;BME280;76270;48.816;8.740;2024-03-02T09:06:53;94369.78;;;5.10;77.27
84590;BME280;76270;48.816;8.740;2024-03-02T09:08:55;94364.16;;;5.15;77.24
84590;BME280;76270;48.816;8.740;2024-03-02T09:10:57;94362.97;;;5.19;77.30
84590;BME280;76270;48.816;8.740;2024-03-02T09:12:59;94356.81;;;5.41;76.06
84590;BME280;76270;48.816;8.740;2024-03-02T09:15:02;94370.84;;;5.19;77.33
84590;BME280;76270;48.816;8.740;2024-03-02T09:17:07;94363.03;;;5.29;77.06
84590;BME280;76270;48.816;8.740;2024-03-02T09:19:12;94353.03;;;5.23;77.00
84590;BME280;76270;48.816;8.740;2024-03-02T09:21:14;94358.03;;;5.26;76.60
84590;BME280;76270;48.816;8.740;2024-03-02T09:23:16;94356.41;;;5.77;74.84
84590;BME280;76270;48.816;8.740;2024-03-02T09:25:18;94358.94;;;5.79;76.18
84590;BME280;76270;48.816;8.740;2024-03-02T09:27:20;94353.78;;;5.56;75.96
84590;BME280;76270;48.816;8.740;2024-03-02T09:29:22;94354.78;;;5.44;76.32
84590;BME280;76270;48.816;8.740;2024-03-02T09:31:24;94357.56;;;5.63;76.06
84590;BME280;76270;48.816;8.740;2024-03-02T09:33:26;94359.09;;;5.66;75.69
84590;BME280;76270;48.816;8.740;2024-03-02T09:35:28;94352.31;;;6.16;75.75
84590;BME280;76270;48.816;8.740;2024-03-02T09:37:30;94359.94;;;5.98;74.39
84590;BME280;76270;48.816;8.740;2024-03-02T09:39:32;94355.47;;;5.78;75.14
84590;BME280;76270;48.816;8.740;2024-03-02T09:41:34;94353.09;;;6.07;74.19
84590;BME280;76270;48.816;8.740;2024-03-02T09:43:36;94354.63;;;6.09;74.07
84590;BME280;76270;48.816;8.740;2024-03-02T09:45:38;94353.34;;;6.04;74.62
84590;BME280;76270;48.816;8.740;2024-03-02T09:47:39;94354.28;;;6.44;72.89
84590;BME280;76270;48.816;8.740;2024-03-02T09:49:41;94352.56;;;6.34;73.60
84590;BME280;76270;48.816;8.740;2024-03-02T09:51:49;94347.25;;;6.24;73.71
84590;BME280;76270;48.816;8.740;2024-03-02T09:53:52;94346.16;;;6.26;74.07
84590;BME280;76270;48.816;8.740;2024-03-02T09:56:00;94334.41;;;6.61;73.25
84590;BME280;76270;48.816;8.740;2024-03-02T09:58:03;94342.09;;;6.43;73.55
84590;BME280;76270;48.816;8.740;2024-03-02T10:00:05;94339.91;;;6.48;73.28
84590;BME280;76270;48.816;8.740;2024-03-02T10:02:07;94333.41;;;6.52;73.18
84590;BME280;76270;48.816;8.740;2024-03-02T10:04:09;94335.56;;;6.68;72.74
84590;BME280;76270;48.816;8.740;2024-03-02T10:06:24;94338.56;;;6.63;72.87
84590;BME280;76270;48.816;8.740;2024-03-02T10:08:26;94338.06;;;6.69;72.61
84590;BME280;76270;48.816;8.740;2024-03-02T10:10:41;94343.41;;;6.88;72.04
84590;BME280;76270;48.816;8.740;2024-03-02T10:12:44;94337.59;;;6.95;71.85
84590;BME280;76270;48.816;8.740;2024-03-02T10:14:46;94340.91;;;6.87;72.00
84590;BME280;76270;48.816;8.740;2024-03-02T10:16:50;94339.53;;;6.93;72.07
84590;BME280;76270;48.816;8.740;2024-03-02T10:18:51;94332.09;;;7.07;71.62
84590;BME280;76270;48.816;8.740;2024-03-02T10:21:13;94338.19;;;7.08;71.48
84590;BME280;76270;48.816;8.740;2024-03-02T10:23:15;94332.66;;;7.11;71.57
84590;BME280;76270;48.816;8.740;2024-03-02T10:25:32;94333.50;;;7.11;71.48
84590;BME280;76270;48.816;8.740;2024-03-02T10:27:51;94330.63;;;7.33;70.89
84590;BME280;76270;48.816;8.740;2024-03-02T10:29:53;94331.47;;;7.34;71.22
84590;BME280;76270;48.816;8.740;2024-03-02T10:31:55;94330.75;;;7.32;70.82
84590;BME280;76270;48.816;8.740;2024-03-02T10:33:57;94331.31;;;7.35;70.71
84590;BME280;76270;48.816;8.740;2024-03-02T10:36:00;94328.56;;;7.85;69.23
84590;BME280;76270;48.816;8.740;2024-03-02T10:38:04;94334.53;;;7.49;70.70
84590;BME280;76270;48.816;8.740;2024-03-02T10:40:07;94331.78;;;7.60;69.21
84590;BME280;76270;48.816;8.740;2024-03-02T10:42:09;94329.69;;;7.63;68.96
84590;BME280;76270;48.816;8.740;2024-03-02T10:44:13;94325.69;;;7.69;68.75
84590;BME280;76270;48.816;8.740;2024-03-02T10:46:16;94330.09;;;7.78;68.85
84590;BME280;76270;48.816;8.740;2024-03-02T10:48:21;94326.66;;;7.77;68.50
84590;BME280;76270;48.816;8.740;2024-03-02T10:50:24;94332.63;;;7.89;68.38
84590;BME280;76270;48.816;8.740;2024-03-02T10:52:26;94325.78;;;7.86;67.84
84590;BME280;76270;48.816;8.740;2024-03-02T10:54:28;94320.13;;;8.00;67.04
84590;BME280;76270;48.816;8.740;2024-03-02T10:56:40;94322.03;;;8.18;66.59
84590;BME280;76270;48.816;8.740;2024-03-02T10:58:42;94315.25;;;8.06;66.82
84590;BME280;76270;48.816;8.740;2024-03-02T11:00:44;94304.38;;;8.18;66.92
84590;BME280;76270;48.816;8.740;2024-03-02T11:02:51;94314.53;;;8.23;67.56
84590;BME280;76270;48.816;8.740;2024-03-02T11:04:54;94303.00;;;8.14;67.22